createdAt,value
2023-03-19T00:00:38.721Z,0.50
2023-03-19T00:03:05.573Z,0.60
2023-03-19T00:05:32.508Z,0.50
2023-03-19T00:07:59.301Z,0.70
2023-03-19T00:10:25.924Z,0.40
2023-03-19T00:12:52.582Z,0.60
2023-03-19T00:15:19.264Z,0.60
2023-03-19T00:17:45.876Z,1.37
2023-03-19T00:20:14.798Z,0.67
2023-03-19T00:22:41.526Z,0.53
2023-03-19T00:25:09.946Z,1.60
2023-03-19T00:27:37.481Z,1.00
2023-03-19T00:30:08.198Z,1.93
2023-03-19T00:32:36.523Z,0.93
2023-03-19T00:35:06.191Z,0.77
2023-03-19T00:37:33.529Z,0.60
2023-03-19T00:40:00.165Z,0.83
2023-03-19T00:42:26.951Z,1.13
2023-03-19T00:44:53.575Z,1.23
2023-03-19T00:47:20.204Z,0.87
2023-03-19T00:49:47.215Z,1.07
2023-03-19T00:52:13.992Z,1.00
2023-03-19T00:54:40.663Z,1.60
2023-03-19T00:57:07.981Z,0.53
2023-03-19T00:59:34.742Z,1.10
2023-03-19T01:02:02.835Z,0.93
2023-03-19T01:04:29.512Z,0.70
2023-03-19T01:06:56.157Z,0.40
2023-03-19T01:09:23.388Z,0.63
2023-03-19T01:11:50.315Z,2.30
2023-03-19T01:14:17.799Z,0.70
2023-03-19T01:16:45.599Z,1.27
2023-03-19T01:19:13.526Z,0.50
2023-03-19T01:21:40.381Z,0.80
2023-03-19T01:24:07.012Z,0.57
2023-03-19T01:26:33.844Z,0.77
2023-03-19T01:29:13.615Z,1.03
2023-03-19T01:31:40.287Z,0.40
2023-03-19T01:34:25.262Z,0.83
2023-03-19T01:36:56.155Z,1.07
2023-03-19T01:39:29.060Z,0.77
2023-03-19T01:42:00.524Z,0.60
2023-03-19T01:44:38.380Z,0.30
2023-03-19T01:47:38.854Z,0.80
2023-03-19T01:50:25.855Z,0.70
2023-03-19T01:53:06.659Z,0.40
2023-03-19T01:55:47.404Z,0.40
2023-03-19T01:58:30.532Z,1.27
2023-03-19T02:01:07.667Z,0.80
2023-03-19T02:03:41.334Z,0.80
2023-03-19T02:06:19.293Z,0.47
2023-03-19T02:08:47.557Z,1.23
2023-03-19T02:11:14.576Z,0.83
2023-03-19T02:13:41.557Z,0.40
2023-03-19T02:16:08.594Z,0.50
2023-03-19T02:18:36.501Z,1.17
2023-03-19T02:21:12.075Z,0.70
2023-03-19T02:23:47.584Z,1.00
2023-03-19T02:26:20.231Z,1.27
2023-03-19T02:28:51.363Z,0.70
2023-03-19T02:31:24.530Z,1.43
2023-03-19T02:34:06.544Z,0.40
2023-03-19T02:36:47.200Z,0.40
2023-03-19T02:39:24.856Z,0.50
2023-03-19T02:41:53.119Z,0.80
2023-03-19T02:44:20.751Z,0.27
2023-03-19T02:46:50.392Z,0.37
2023-03-19T02:49:17.055Z,1.03
2023-03-19T02:51:43.655Z,0.73
2023-03-19T02:54:10.618Z,1.07
2023-03-19T02:56:37.220Z,0.30
2023-03-19T02:59:05.108Z,0.50
2023-03-19T03:01:31.803Z,0.97
2023-03-19T03:03:58.479Z,0.43
2023-03-19T03:06:25.149Z,1.00
2023-03-19T03:08:52.074Z,0.33
2023-03-19T03:11:18.706Z,0.80
2023-03-19T03:13:45.901Z,0.37
2023-03-19T03:16:12.704Z,0.77
2023-03-19T03:18:39.455Z,0.97
2023-03-19T03:21:06.097Z,0.73
2023-03-19T03:23:32.948Z,0.50
2023-03-19T03:26:00.534Z,0.77
2023-03-19T03:28:27.264Z,0.93
2023-03-19T03:31:00.971Z,0.50
2023-03-19T03:33:27.872Z,0.60
2023-03-19T03:35:54.514Z,0.70
2023-03-19T03:38:21.300Z,0.37
2023-03-19T03:40:54.799Z,0.87
2023-03-19T03:43:25.893Z,1.50
2023-03-19T03:45:53.494Z,0.50
2023-03-19T03:48:21.800Z,0.97
2023-03-19T03:50:49.194Z,0.50
2023-03-19T03:53:18.927Z,0.63
2023-03-19T03:55:45.691Z,0.60
2023-03-19T03:58:13.061Z,0.70
2023-03-19T04:00:39.976Z,0.50
2023-03-19T04:03:07.055Z,1.07
2023-03-19T04:05:33.775Z,1.57
2023-03-19T04:08:01.181Z,1.93
2023-03-19T04:10:28.066Z,1.07
2023-03-19T04:12:54.818Z,0.73
2023-03-19T04:15:22.584Z,0.67
2023-03-19T04:17:51.335Z,0.33
2023-03-19T04:20:18.625Z,1.00
2023-03-19T04:22:46.578Z,0.40
2023-03-19T04:25:13.284Z,1.37
2023-03-19T04:27:40.049Z,0.70
2023-03-19T04:30:09.377Z,0.93
2023-03-19T04:32:36.930Z,0.53
2023-03-19T04:35:04.223Z,0.57
2023-03-19T04:37:31.219Z,0.77
2023-03-19T04:39:57.998Z,0.77
2023-03-19T04:42:24.841Z,1.17
2023-03-19T04:45:08.682Z,0.67
2023-03-19T04:47:35.680Z,0.27
2023-03-19T04:50:02.780Z,0.80
2023-03-19T04:52:33.269Z,0.40
2023-03-19T04:55:01.443Z,0.33
2023-03-19T04:57:28.764Z,0.80
2023-03-19T04:59:56.526Z,1.23
2023-03-19T05:02:23.903Z,0.30
2023-03-19T05:04:51.285Z,0.43
2023-03-19T05:07:18.044Z,0.60
2023-03-19T05:09:46.247Z,0.93
2023-03-19T05:12:14.010Z,0.87
2023-03-19T05:14:45.939Z,0.30
2023-03-19T05:17:27.652Z,0.63
2023-03-19T05:20:09.449Z,0.33
2023-03-19T05:22:38.949Z,0.50
2023-03-19T05:25:06.882Z,0.73
2023-03-19T05:27:34.176Z,0.70
2023-03-19T05:30:09.913Z,0.40
2023-03-19T05:32:47.114Z,0.37
2023-03-19T05:35:24.563Z,0.53
2023-03-19T05:37:51.991Z,0.67
2023-03-19T05:40:18.827Z,0.50
2023-03-19T05:42:46.624Z,0.40
2023-03-19T05:45:17.236Z,0.50
2023-03-19T05:47:49.966Z,0.50
2023-03-19T05:50:18.822Z,0.83
2023-03-19T05:53:05.074Z,0.47
2023-03-19T05:55:34.012Z,0.60
2023-03-19T05:58:05.739Z,0.67
2023-03-19T06:00:32.600Z,0.30
2023-03-19T06:02:59.431Z,0.53
2023-03-19T06:05:26.499Z,0.50
2023-03-19T06:07:56.361Z,0.90
2023-03-19T06:10:41.556Z,1.20
2023-03-19T06:13:11.415Z,1.03
2023-03-19T06:15:44.892Z,0.40
2023-03-19T06:18:22.995Z,0.43
2023-03-19T06:20:49.856Z,1.93
2023-03-19T06:23:18.840Z,0.70
2023-03-19T06:25:46.189Z,0.73
2023-03-19T06:28:13.937Z,1.13
2023-03-19T06:30:43.446Z,0.43
2023-03-19T06:33:32.141Z,0.40
2023-03-19T06:35:59.617Z,1.47
2023-03-19T06:38:27.167Z,0.43
2023-03-19T06:40:53.768Z,0.70
2023-03-19T06:43:20.448Z,0.80
2023-03-19T06:45:47.100Z,1.73
2023-03-19T06:48:13.745Z,0.53
2023-03-19T06:50:40.512Z,0.60
2023-03-19T06:53:08.048Z,1.23
2023-03-19T06:55:34.768Z,0.47
2023-03-19T06:58:01.415Z,1.10
2023-03-19T07:00:28.558Z,0.60
2023-03-19T07:02:55.215Z,0.95
2023-03-19T07:05:21.828Z,0.53
2023-03-19T07:07:48.439Z,0.73
2023-03-19T07:10:17.294Z,0.90
2023-03-19T07:12:43.886Z,1.70
2023-03-19T07:15:10.862Z,1.20
2023-03-19T07:17:37.488Z,0.60
2023-03-19T07:20:04.528Z,0.30
2023-03-19T07:22:31.260Z,0.70
2023-03-19T07:24:58.083Z,0.30
2023-03-19T07:27:24.716Z,0.98
2023-03-19T07:29:51.339Z,0.50
2023-03-19T07:32:17.964Z,1.52
2023-03-19T07:34:44.637Z,0.73
2023-03-19T07:37:11.435Z,0.52
2023-03-19T07:39:38.513Z,1.08
2023-03-19T07:42:05.744Z,0.45
2023-03-19T07:44:32.423Z,0.30
2023-03-19T07:46:59.238Z,0.95
2023-03-19T07:49:26.200Z,0.20
2023-03-19T07:51:52.833Z,0.60
2023-03-19T07:54:19.514Z,0.52
2023-03-19T07:56:46.092Z,0.70
2023-03-19T07:59:12.813Z,1.02
2023-03-19T08:01:39.448Z,0.60
2023-03-19T08:04:06.365Z,0.80
2023-03-19T08:06:33.537Z,0.30
2023-03-19T08:09:00.214Z,0.63
2023-03-19T08:11:27.000Z,0.70
2023-03-19T08:13:53.593Z,0.65
2023-03-19T08:16:20.202Z,0.93
2023-03-19T08:18:46.843Z,0.65
2023-03-19T08:21:13.488Z,0.73
2023-03-19T08:23:40.259Z,0.35
2023-03-19T08:26:06.901Z,0.60
2023-03-19T08:28:33.581Z,0.65
2023-03-19T08:31:10.452Z,0.60
2023-03-19T08:33:37.613Z,0.52
2023-03-19T08:36:13.278Z,0.93
2023-03-19T08:38:39.996Z,0.40
2023-03-19T08:41:07.004Z,0.70
2023-03-19T08:43:36.625Z,0.60
2023-03-19T08:46:04.949Z,1.10
2023-03-19T08:48:32.011Z,0.50
2023-03-19T08:51:01.744Z,0.30
2023-03-19T08:53:28.984Z,0.70
2023-03-19T08:56:00.741Z,0.38
2023-03-19T08:58:28.325Z,0.85
2023-03-19T09:01:03.168Z,0.57
2023-03-19T09:03:29.809Z,0.50
2023-03-19T09:06:02.204Z,0.93
2023-03-19T09:08:30.623Z,0.30
2023-03-19T09:10:58.034Z,0.65
2023-03-19T09:13:25.165Z,0.60
2023-03-19T09:15:52.055Z,0.52
2023-03-19T09:18:20.720Z,0.73
2023-03-19T09:20:48.038Z,1.02
2023-03-19T09:23:14.669Z,0.45
2023-03-19T09:25:41.543Z,1.63
2023-03-19T09:28:08.496Z,0.50
2023-03-19T09:30:35.227Z,1.00
2023-03-19T09:33:01.879Z,0.30
2023-03-19T09:35:31.269Z,0.50
2023-03-19T09:37:58.775Z,0.40
2023-03-19T09:40:35.246Z,0.30
2023-03-19T09:43:20.602Z,0.55
2023-03-19T09:45:48.083Z,0.47
2023-03-19T09:48:34.398Z,0.50
2023-03-19T09:51:03.879Z,0.88
2023-03-19T09:53:44.596Z,0.77
2023-03-19T09:56:14.683Z,0.77
2023-03-19T09:58:41.640Z,1.05
2023-03-19T10:01:25.461Z,1.55
2023-03-19T10:03:52.134Z,0.40
2023-03-19T10:06:35.492Z,1.38
2023-03-19T10:09:23.660Z,0.45
2023-03-19T10:12:17.554Z,0.40
2023-03-19T10:15:15.705Z,1.27
2023-03-19T10:17:58.033Z,0.50
2023-03-19T10:20:34.048Z,0.73
2023-03-19T10:23:25.122Z,0.52
2023-03-19T10:25:58.384Z,0.52
2023-03-19T10:28:28.733Z,0.45
2023-03-19T10:31:21.181Z,0.52
2023-03-19T10:34:18.954Z,0.70
2023-03-19T10:36:45.647Z,0.57
2023-03-19T10:39:16.345Z,0.40
2023-03-19T10:41:55.451Z,1.73
2023-03-19T10:44:30.428Z,1.38
2023-03-19T10:47:12.423Z,1.05
2023-03-19T10:49:39.550Z,0.82
2023-03-19T10:52:36.949Z,1.05
2023-03-19T10:55:18.166Z,0.95
2023-03-19T10:57:51.264Z,0.85
2023-03-19T11:00:24.469Z,1.23
2023-03-19T11:02:54.354Z,0.70
2023-03-19T11:05:31.678Z,0.50
2023-03-19T11:08:07.196Z,0.65
2023-03-19T11:10:35.886Z,1.38
2023-03-19T11:13:23.438Z,0.57
2023-03-19T11:15:51.960Z,0.20
2023-03-19T11:18:24.691Z,0.63
2023-03-19T11:21:02.279Z,0.95
2023-03-19T11:23:31.618Z,0.98
2023-03-19T11:26:01.754Z,0.40
2023-03-19T11:28:33.456Z,0.50
2023-03-19T11:31:15.281Z,0.93
2023-03-19T11:33:54.241Z,2.25
2023-03-19T11:37:05.759Z,1.23
2023-03-19T11:40:10.357Z,1.48
2023-03-19T11:42:56.787Z,0.63
2023-03-19T11:45:49.205Z,1.55
2023-03-19T11:48:33.823Z,0.93
2023-03-19T11:51:06.618Z,0.95
2023-03-19T11:53:59.031Z,0.88
2023-03-19T11:56:38.391Z,1.00
2023-03-19T11:59:32.865Z,0.93
2023-03-19T12:02:27.997Z,0.77
2023-03-19T12:05:19.697Z,0.90
2023-03-19T12:07:55.223Z,0.85
2023-03-19T12:10:39.714Z,0.70
2023-03-19T12:13:19.976Z,0.65
2023-03-19T12:16:14.664Z,1.15
2023-03-19T12:19:12.324Z,0.55
2023-03-19T12:22:04.983Z,0.73
2023-03-19T12:24:31.548Z,0.90
2023-03-19T12:27:16.256Z,0.40
2023-03-19T12:29:56.047Z,0.50
2023-03-19T12:32:58.200Z,0.60
2023-03-19T12:35:34.604Z,1.15
2023-03-19T12:38:17.305Z,0.77
2023-03-19T12:40:51.540Z,0.75
2023-03-19T12:43:34.087Z,0.85
2023-03-19T12:46:14.263Z,0.68
2023-03-19T12:49:03.366Z,1.27
2023-03-19T12:51:35.857Z,1.45
2023-03-19T12:54:08.200Z,0.45
2023-03-19T12:56:53.540Z,0.47
2023-03-19T12:59:33.424Z,0.55
2023-03-19T13:02:22.877Z,0.70
2023-03-19T13:04:57.905Z,0.52
2023-03-19T13:07:52.558Z,0.88
2023-03-19T13:10:21.195Z,1.02
2023-03-19T13:12:50.190Z,0.73
2023-03-19T13:15:36.492Z,0.88
2023-03-19T13:18:03.381Z,0.55
2023-03-19T13:20:38.929Z,0.88
2023-03-19T13:23:08.113Z,0.73
2023-03-19T13:25:39.731Z,0.50
2023-03-19T13:28:26.420Z,1.00
2023-03-19T13:31:08.198Z,0.70
2023-03-19T13:33:38.491Z,0.70
2023-03-19T13:36:07.620Z,1.10
2023-03-19T13:38:38.400Z,0.68
2023-03-19T13:41:05.629Z,0.73
2023-03-19T13:43:32.829Z,0.65
2023-03-19T13:46:17.253Z,0.93
2023-03-19T13:48:46.704Z,0.85
2023-03-19T13:51:19.323Z,0.30
2023-03-19T13:54:04.141Z,0.82
2023-03-19T13:56:33.111Z,1.05
2023-03-19T13:59:15.035Z,0.73
2023-03-19T14:01:44.734Z,1.10
2023-03-19T14:04:23.404Z,0.40
2023-03-19T14:07:17.733Z,0.45
2023-03-19T14:09:48.573Z,0.77
2023-03-19T14:12:18.324Z,0.88
2023-03-19T14:14:47.997Z,0.63
2023-03-19T14:17:36.652Z,1.02
2023-03-19T14:20:16.668Z,1.65
2023-03-19T14:22:44.995Z,1.58
2023-03-19T14:25:26.207Z,1.30
2023-03-19T14:28:00.556Z,0.55
2023-03-19T14:30:37.796Z,0.55
2023-03-19T14:33:15.953Z,0.98
2023-03-19T14:35:46.846Z,0.38
2023-03-19T14:38:34.547Z,0.35
2023-03-19T14:41:03.687Z,0.40
2023-03-19T14:43:52.576Z,0.40
2023-03-19T14:47:01.986Z,1.27
2023-03-19T14:49:46.775Z,0.95
2023-03-19T14:52:32.858Z,0.82
2023-03-19T14:55:02.123Z,0.93
2023-03-19T14:57:34.358Z,0.50
2023-03-19T15:00:02.106Z,0.60
2023-03-19T15:02:38.683Z,1.40
2023-03-19T15:05:22.272Z,0.98
2023-03-19T15:07:52.696Z,0.82
2023-03-19T15:10:26.828Z,0.45
2023-03-19T15:13:02.702Z,0.90
2023-03-19T15:15:56.977Z,0.80
2023-03-19T15:18:26.057Z,1.05
2023-03-19T15:20:56.879Z,0.73
2023-03-19T15:23:28.627Z,1.00
2023-03-19T15:25:57.819Z,0.82
2023-03-19T15:28:27.823Z,0.90
2023-03-19T15:31:03.456Z,0.70
2023-03-19T15:33:41.518Z,0.95
2023-03-19T15:36:18.923Z,0.98
2023-03-19T15:38:49.507Z,1.00
2023-03-19T15:41:17.995Z,0.88
2023-03-19T15:43:45.654Z,1.25
2023-03-19T15:46:17.057Z,0.63
2023-03-19T15:49:04.839Z,0.65
2023-03-19T15:51:32.686Z,0.65
2023-03-19T15:54:01.519Z,0.65
2023-03-19T15:56:29.135Z,1.25
2023-03-19T15:58:57.203Z,0.75
2023-03-19T16:01:24.385Z,0.75
2023-03-19T16:04:01.678Z,1.00
2023-03-19T16:06:39.573Z,1.10
2023-03-19T16:09:26.910Z,0.32
2023-03-19T16:11:54.744Z,0.82
2023-03-19T16:14:40.871Z,0.73
2023-03-19T16:17:15.817Z,0.73
2023-03-19T16:19:58.531Z,0.90
2023-03-19T16:22:29.678Z,0.60
2023-03-19T16:24:57.386Z,0.47
2023-03-19T16:27:38.712Z,0.77
2023-03-19T16:30:21.353Z,0.70
2023-03-19T16:33:04.962Z,0.95
2023-03-19T16:35:33.806Z,0.70
2023-03-19T16:38:15.321Z,0.38
2023-03-19T16:40:47.051Z,0.70
2023-03-19T16:43:20.163Z,0.40
2023-03-19T16:45:50.921Z,0.85
2023-03-19T16:48:17.834Z,1.42
2023-03-19T16:50:45.024Z,0.70
2023-03-19T16:53:24.345Z,1.33
2023-03-19T16:55:52.992Z,1.05
2023-03-19T16:58:33.008Z,0.93
2023-03-19T17:00:59.682Z,1.27
2023-03-19T17:03:26.379Z,1.75
2023-03-19T17:05:52.983Z,1.48
2023-03-19T17:08:21.739Z,0.45
2023-03-19T17:10:50.957Z,0.90
2023-03-19T17:13:29.677Z,1.15
2023-03-19T17:15:59.471Z,0.45
2023-03-19T17:18:29.880Z,0.80
2023-03-19T17:21:16.428Z,0.98
2023-03-19T17:23:44.139Z,0.63
2023-03-19T17:26:25.725Z,2.45
2023-03-19T17:28:53.600Z,1.58
2023-03-19T17:31:29.050Z,1.83
2023-03-19T17:34:17.772Z,1.45
2023-03-19T17:36:56.686Z,1.25
2023-03-19T17:39:24.616Z,1.50
2023-03-19T17:41:51.358Z,1.02
2023-03-19T17:44:17.969Z,1.50
2023-03-19T17:46:48.449Z,1.70
2023-03-19T17:49:22.464Z,2.08
2023-03-19T17:51:50.209Z,2.00
2023-03-19T17:54:17.340Z,2.15
2023-03-19T17:56:44.183Z,0.75
2023-03-19T17:59:11.224Z,0.98
2023-03-19T18:01:39.827Z,1.20
2023-03-19T18:04:07.099Z,1.38
2023-03-19T18:06:37.191Z,1.73
2023-03-19T18:09:03.860Z,1.20
2023-03-19T18:11:30.958Z,2.40
2023-03-19T18:13:57.647Z,1.88
2023-03-19T18:16:32.172Z,1.40
2023-03-19T18:19:01.568Z,1.58
2023-03-19T18:21:29.400Z,1.80
2023-03-19T18:23:57.187Z,1.02
2023-03-19T18:26:24.648Z,0.80
2023-03-19T18:28:51.329Z,2.42
2023-03-19T18:31:23.153Z,1.23
2023-03-19T18:33:53.795Z,1.77
2023-03-19T18:36:24.600Z,2.15
2023-03-19T18:38:54.906Z,0.90
2023-03-19T18:41:23.840Z,0.77
2023-03-19T18:44:07.284Z,1.35
2023-03-19T18:46:35.659Z,2.08
2023-03-19T18:49:22.864Z,0.73
2023-03-19T18:52:01.555Z,0.95
2023-03-19T18:54:30.687Z,0.95
2023-03-19T18:56:58.178Z,1.17
2023-03-19T18:59:30.733Z,2.23
2023-03-19T19:02:22.396Z,1.37
2023-03-19T19:04:49.218Z,1.15
2023-03-19T19:07:16.580Z,1.80
2023-03-19T19:09:43.595Z,0.70
2023-03-19T19:12:18.020Z,1.25
2023-03-19T19:14:45.438Z,0.65
2023-03-19T19:17:21.287Z,0.68
2023-03-19T19:19:48.039Z,1.83
2023-03-19T19:22:16.421Z,1.40
2023-03-19T19:24:43.899Z,2.05
2023-03-19T19:27:23.250Z,1.55
2023-03-19T19:29:50.382Z,1.00
2023-03-19T19:32:26.444Z,0.93
2023-03-19T19:34:53.497Z,1.08
2023-03-19T19:37:22.956Z,1.08
2023-03-19T19:39:50.681Z,0.75
2023-03-19T19:42:19.741Z,0.85
2023-03-19T19:44:51.635Z,2.17
2023-03-19T19:47:18.671Z,1.30
2023-03-19T19:49:45.341Z,1.77
2023-03-19T19:52:17.554Z,1.70
2023-03-19T19:54:44.756Z,0.98
2023-03-19T19:57:21.292Z,0.65
2023-03-19T19:59:49.093Z,1.70
2023-03-19T20:02:28.664Z,0.77
2023-03-19T20:04:56.201Z,2.05
2023-03-19T20:07:22.994Z,1.10
2023-03-19T20:09:49.620Z,2.78
2023-03-19T20:12:22.030Z,1.67
2023-03-19T20:14:49.328Z,2.05
2023-03-19T20:17:17.999Z,1.63
2023-03-19T20:19:45.310Z,2.35
2023-03-19T20:22:11.951Z,1.42
2023-03-19T20:24:38.697Z,2.08
2023-03-19T20:27:17.312Z,1.27
2023-03-19T20:29:44.244Z,2.10
2023-03-19T20:32:28.118Z,1.25
2023-03-19T20:34:54.728Z,1.33
2023-03-19T20:37:21.328Z,1.20
2023-03-19T20:39:48.013Z,1.80
2023-03-19T20:42:16.013Z,1.98
2023-03-19T20:44:43.908Z,1.33
2023-03-19T20:47:20.362Z,1.25
2023-03-19T20:49:49.913Z,2.30
2023-03-19T20:52:16.848Z,1.00
2023-03-19T20:54:43.475Z,2.33
2023-03-19T20:57:15.493Z,2.67
2023-03-19T20:59:45.673Z,1.40
2023-03-19T21:02:17.084Z,2.95
2023-03-19T21:04:45.478Z,1.98
2023-03-19T21:07:26.076Z,2.35
2023-03-19T21:09:52.913Z,1.70
2023-03-19T21:12:29.412Z,2.22
2023-03-19T21:14:57.037Z,2.40
2023-03-19T21:17:27.259Z,2.53
2023-03-19T21:19:54.704Z,1.25
2023-03-19T21:22:25.937Z,3.55
2023-03-19T21:24:56.832Z,1.92
2023-03-19T21:27:26.502Z,2.30
2023-03-19T21:29:54.051Z,1.20
2023-03-19T21:32:21.255Z,2.97
2023-03-19T21:34:49.164Z,1.27
2023-03-19T21:37:18.791Z,2.53
2023-03-19T21:39:46.227Z,1.67
2023-03-19T21:42:22.801Z,2.38
2023-03-19T21:44:56.782Z,1.75
2023-03-19T21:47:23.446Z,4.68
2023-03-19T21:49:50.341Z,2.28
2023-03-19T21:52:20.580Z,2.08
2023-03-19T21:54:47.241Z,2.38
2023-03-19T21:57:15.317Z,2.92
2023-03-19T21:59:45.083Z,2.45
2023-03-19T22:02:37.879Z,2.50
2023-03-19T22:05:15.385Z,1.25
2023-03-19T22:07:42.012Z,1.40
2023-03-19T22:10:09.157Z,3.10
2023-03-19T22:12:37.360Z,1.70
2023-03-19T22:15:16.133Z,3.35
2023-03-19T22:17:42.767Z,3.72
2023-03-19T22:20:21.740Z,2.55
2023-03-19T22:22:49.184Z,2.63
2023-03-19T22:25:16.887Z,2.90
2023-03-19T22:27:46.608Z,3.13
2023-03-19T22:30:31.988Z,3.42
2023-03-19T22:33:00.665Z,2.63
2023-03-19T22:35:27.761Z,3.67
2023-03-19T22:37:54.616Z,5.65
2023-03-19T22:40:21.587Z,2.23
2023-03-19T22:42:49.624Z,3.45
2023-03-19T22:45:31.058Z,3.33
2023-03-19T22:47:59.634Z,1.67
2023-03-19T22:50:31.850Z,4.55
2023-03-19T22:52:59.024Z,1.75
2023-03-19T22:55:25.964Z,3.00
2023-03-19T22:57:52.597Z,3.30
2023-03-19T23:00:23.468Z,3.90
2023-03-19T23:02:57.311Z,5.22
2023-03-19T23:05:34.857Z,2.42
2023-03-19T23:08:05.499Z,3.05
2023-03-19T23:10:33.217Z,2.30
2023-03-19T23:12:59.953Z,2.70
2023-03-19T23:15:28.537Z,3.37
2023-03-19T23:17:59.135Z,2.47
2023-03-19T23:20:28.066Z,2.20
2023-03-19T23:22:55.493Z,3.20
2023-03-19T23:25:28.369Z,2.97
2023-03-19T23:28:01.200Z,2.97
2023-03-19T23:30:33.349Z,3.37
2023-03-19T23:33:03.248Z,2.90
2023-03-19T23:35:31.058Z,3.07
2023-03-19T23:37:58.865Z,3.47
2023-03-19T23:40:30.376Z,2.67
2023-03-19T23:42:58.315Z,2.67
2023-03-19T23:45:38.323Z,1.23
2023-03-19T23:48:11.326Z,3.97
2023-03-19T23:50:38.280Z,4.90
2023-03-19T23:53:05.404Z,3.40
2023-03-19T23:55:33.051Z,4.50
2023-03-19T23:58:01.502Z,2.33
